Time;durP1;ratioP1;P1;durP2;ratioP2;P2;SDS_P1;SDS_P2;PMS_P1;PMS_P2;Temp;Humidity;BMP_temperature;BMP_pressure;BME280_temperature;BME280_humidity;BME280_pressure;Samples;Min_cycle;Max_cycle;Signal;HPM_P1;HPM_P2
2022/08/26 00:01:32;;;;;;;;;;;;;;;24.38;52.65;99391.47;12228285;19;19994;-80
2022/08/26 00:05:35;;;;;;;;;;;;;;;24.41;52.43;99396.38;12204179;19;20352;-82
2022/08/26 00:09:37;;;;;;;;;;;;;;;24.43;52.33;99392.09;12226236;19;20048;-81
2022/08/26 00:13:41;;;;;;;;;;;;;;;24.48;52.51;99400.31;12206278;19;19958;-81
2022/08/26 00:17:50;;;;;;;;;;;;;;;24.48;52.23;99405.09;12228815;19;19991;-81
2022/08/26 00:21:52;;;;;;;;;;;;;;;24.41;52.62;99402.03;12226504;19;20359;-81
2022/08/26 00:25:53;;;;;;;;;;;;;;;24.29;52.54;99406.47;12204080;19;19919;-80
2022/08/26 00:29:57;;;;;;;;;;;;;;;24.18;52.72;99398.84;12224494;19;19990;-82
2022/08/26 00:33:58;;;;;;;;;;;;;;;24.03;53.41;99406.78;12224478;19;19942;-80
2022/08/26 00:38:01;;;;;;;;;;;;;;;23.91;53.45;99401.16;12205465;19;19970;-80
2022/08/26 00:42:03;;;;;;;;;;;;;;;23.79;53.71;99401.13;12225671;19;19918;-80
2022/08/26 00:46:13;;;;;;;;;;;;;;;23.71;54.47;99399.22;12223043;19;19995;-81
2022/08/26 00:50:20;;;;;;;;;;;;;;;23.65;54.48;99404.25;12203017;19;19915;-80
2022/08/26 00:54:23;;;;;;;;;;;;;;;23.58;54.61;99410.41;12222556;19;19970;-81
2022/08/26 00:58:30;;;;;;;;;;;;;;;23.51;55.22;99403.72;12226512;19;19919;-81
2022/08/26 01:02:31;;;;;;;;;;;;;;;23.46;55.07;99395.50;12208308;19;20816;-81
2022/08/26 01:06:33;;;;;;;;;;;;;;;23.43;55.60;99399.81;12234409;19;19907;-81
2022/08/26 01:10:36;;;;;;;;;;;;;;;23.47;55.34;99397.97;12237240;19;20008;-81
2022/08/26 01:14:39;;;;;;;;;;;;;;;23.52;55.37;99400.56;12214609;19;19914;-81
2022/08/26 01:18:42;;;;;;;;;;;;;;;23.54;55.27;99395.41;12237448;19;19999;-81
2022/08/26 01:23:04;;;;;;;;;;;;;;;23.53;55.06;99392.94;12213459;19;19919;-82
2022/08/26 01:27:11;;;;;;;;;;;;;;;23.53;55.07;99390.97;12233741;19;19922;-81
2022/08/26 01:31:16;;;;;;;;;;;;;;;23.54;55.23;99397.41;12235083;19;19937;-80
2022/08/26 01:35:18;;;;;;;;;;;;;;;23.54;55.59;99401.03;12212641;19;19907;-81
2022/08/26 01:39:20;;;;;;;;;;;;;;;23.52;55.72;99399.75;12234986;19;19928;-80
2022/08/26 01:43:23;;;;;;;;;;;;;;;23.49;55.41;99408.88;12234322;19;19919;-81
2022/08/26 01:47:28;;;;;;;;;;;;;;;23.45;55.77;99405.94;12212512;19;19911;-81
2022/08/26 01:51:32;;;;;;;;;;;;;;;23.39;55.81;99407.31;12231682;19;20260;-80
2022/08/26 01:55:39;;;;;;;;;;;;;;;23.32;56.55;99404.22;12230586;19;19990;-80
2022/08/26 01:59:41;;;;;;;;;;;;;;;23.27;56.23;99410.09;12233969;19;19948;-80
2022/08/26 02:03:53;;;;;;;;;;;;;;;23.22;56.94;99405.47;12229817;19;19939;-81
2022/08/26 02:07:55;;;;;;;;;;;;;;;23.17;57.00;99400.06;12211886;19;19906;-80
2022/08/26 02:11:59;;;;;;;;;;;;;;;23.15;56.91;99403.22;12230343;19;19915;-81
2022/08/26 02:16:02;;;;;;;;;;;;;;;23.18;56.92;99410.97;12231569;19;20277;-80
2022/08/26 02:20:05;;;;;;;;;;;;;;;23.22;57.24;99410.28;12209620;19;19932;-81
2022/08/26 02:24:14;;;;;;;;;;;;;;;23.27;57.23;99410.91;12226663;19;19938;-81
2022/08/26 02:28:18;;;;;;;;;;;;;;;23.33;57.17;99406.72;12231648;19;19970;-81
2022/08/26 02:32:20;;;;;;;;;;;;;;;23.35;57.20;99409.16;12207134;19;19926;-80
2022/08/26 02:36:24;;;;;;;;;;;;;;;23.31;57.66;99409.03;12230571;19;20260;-80
2022/08/26 02:40:30;;;;;;;;;;;;;;;23.25;57.66;99401.97;12229444;19;19915;-82
2022/08/26 02:44:32;;;;;;;;;;;;;;;23.19;58.11;99406.16;12207366;19;19930;-80
2022/08/26 02:48:33;;;;;;;;;;;;;;;23.13;57.90;99405.56;12227934;19;19911;-81
2022/08/26 02:52:36;;;;;;;;;;;;;;;23.08;58.22;99399.31;12229666;19;19919;-82
2022/08/26 02:56:37;;;;;;;;;;;;;;;23.04;58.23;99399.19;12208751;19;19907;-81
2022/08/26 03:00:39;;;;;;;;;;;;;;;23.03;58.25;99397.56;12230946;19;19915;-81
2022/08/26 03:04:53;;;;;;;;;;;;;;;23.01;58.87;99394.25;12207749;19;20435;-80
2022/08/26 03:09:02;;;;;;;;;;;;;;;22.98;58.96;99386.50;12229572;19;19915;-81
2022/08/26 03:13:04;;;;;;;;;;;;;;;22.95;58.68;99390.81;12228112;19;19922;-80
2022/08/26 03:17:06;;;;;;;;;;;;;;;22.90;59.32;99391.03;12209454;19;20664;-80
2022/08/26 03:21:11;;;;;;;;;;;;;;;22.79;59.28;99394.56;12231093;19;20326;-81
2022/08/26 03:25:15;;;;;;;;;;;;;;;22.67;60.10;99392.50;12227507;19;19917;-81
2022/08/26 03:33:37;;;;;;;;;;;;;;;22.51;60.39;99389.44;12227432;19;20345;-81
2022/08/26 03:37:38;;;;;;;;;;;;;;;22.45;60.72;99380.41;12214755;19;19907;-80
2022/08/26 03:41:40;;;;;;;;;;;;;;;22.38;61.29;99388.53;12227102;19;19927;-80
2022/08/26 03:45:42;;;;;;;;;;;;;;;22.33;61.34;99394.34;12225193;19;19919;-81
2022/08/26 03:49:46;;;;;;;;;;;;;;;22.31;61.88;99391.06;12205032;19;19915;-80
2022/08/26 03:53:48;;;;;;;;;;;;;;;22.29;62.18;99385.78;12225030;19;19914;-81
2022/08/26 03:57:50;;;;;;;;;;;;;;;22.33;62.29;99385.09;12227479;19;19922;-81
2022/08/26 04:01:51;;;;;;;;;;;;;;;22.39;62.30;99383.75;12204872;19;19970;-81
2022/08/26 04:05:53;;;;;;;;;;;;;;;22.42;62.96;99383.06;12224714;19;19930;-82
2022/08/26 04:09:57;;;;;;;;;;;;;;;22.48;62.72;99384.53;12223347;19;19918;-81
2022/08/26 04:14:00;;;;;;;;;;;;;;;22.50;62.58;99387.81;12203158;19;19926;-81
2022/08/26 04:18:02;;;;;;;;;;;;;;;22.56;62.74;99394.06;12226303;19;19922;-80
2022/08/26 04:22:03;;;;;;;;;;;;;;;22.58;62.89;99394.56;12224436;19;19919;-81
2022/08/26 04:26:05;;;;;;;;;;;;;;;22.53;63.28;99398.38;12201523;19;19910;-80
2022/08/26 04:30:09;;;;;;;;;;;;;;;22.40;63.30;99405.88;12226201;19;19950;-81
2022/08/26 04:34:10;;;;;;;;;;;;;;;22.35;63.95;99402.44;12224041;19;19926;-81
2022/08/26 04:38:15;;;;;;;;;;;;;;;22.31;63.85;99402.31;12201290;19;19915;-80
2022/08/26 04:42:16;;;;;;;;;;;;;;;22.28;63.77;99398.19;12085469;19;2734572;-81
2022/08/26 04:46:26;;;;;;;;;;;;;;;22.29;64.05;99399.81;12224620;19;19923;-81
2022/08/26 04:50:28;;;;;;;;;;;;;;;22.32;63.65;99397.50;12202975;19;19911;-80
2022/08/26 04:54:30;;;;;;;;;;;;;;;22.30;63.91;99393.03;12222686;19;19911;-80
2022/08/26 04:58:31;;;;;;;;;;;;;;;22.27;63.84;99398.50;12223751;19;19926;-81
2022/08/26 05:02:33;;;;;;;;;;;;;;;22.26;64.24;99406.09;12202269;19;19910;-81
2022/08/26 05:06:35;;;;;;;;;;;;;;;22.28;64.88;99406.59;12223271;19;20477;-80
2022/08/26 05:10:38;;;;;;;;;;;;;;;22.34;64.26;99417.63;12232770;19;19921;-81
2022/08/26 05:14:40;;;;;;;;;;;;;;;22.35;64.48;99425.72;12259807;19;19919;-80
2022/08/26 05:18:44;;;;;;;;;;;;;;;22.34;64.37;99424.09;12249712;19;19998;-82
2022/08/26 05:22:46;;;;;;;;;;;;;;;22.38;64.60;99427.84;12204644;19;19918;-81
2022/08/26 05:26:48;;;;;;;;;;;;;;;22.40;64.58;99427.50;12224841;19;19911;-82
2022/08/26 05:30:50;;;;;;;;;;;;;;;22.43;65.21;99421.22;12225811;19;19934;-81
2022/08/26 05:34:53;;;;;;;;;;;;;;;22.43;65.39;99421.22;12204462;19;19910;-81
2022/08/26 05:38:56;;;;;;;;;;;;;;;22.42;65.58;99431.63;12224125;19;19911;-81
2022/08/26 05:42:59;;;;;;;;;;;;;;;22.43;65.51;99426.84;12225148;19;19918;-81
2022/08/26 05:47:02;;;;;;;;;;;;;;;22.46;66.02;99431.78;12202684;19;19918;-81
2022/08/26 05:51:05;;;;;;;;;;;;;;;22.47;66.85;99427.81;12234022;19;19925;-81
2022/08/26 05:55:07;;;;;;;;;;;;;;;22.46;66.54;99432.59;12234724;19;19997;-81
2022/08/26 05:59:11;;;;;;;;;;;;;;;22.47;66.34;99439.03;12212612;19;19918;-81
2022/08/26 06:03:14;;;;;;;;;;;;;;;22.50;66.79;99436.38;12233913;19;19918;-81
2022/08/26 06:07:16;;;;;;;;;;;;;;;22.52;67.17;99436.84;12236868;19;19924;-81
2022/08/26 06:11:24;;;;;;;;;;;;;;;22.57;67.63;99449.06;12259195;19;20549;-81
2022/08/26 06:15:25;;;;;;;;;;;;;;;22.58;67.20;99451.53;12281047;19;19913;-82
2022/08/26 06:19:28;;;;;;;;;;;;;;;22.61;67.29;99456.47;12281542;19;19931;-81
2022/08/26 06:27:54;;;;;;;;;;;;;;;22.61;65.88;99473.31;12238445;19;19991;-81
2022/08/26 06:31:56;;;;;;;;;;;;;;;22.59;65.46;99472.81;12213566;19;19919;-82
2022/08/26 06:35:59;;;;;;;;;;;;;;;22.65;65.26;99468.66;12237718;19;19914;-81
2022/08/26 06:40:01;;;;;;;;;;;;;;;22.68;65.17;99479.22;12236914;19;19912;-81
2022/08/26 06:44:05;;;;;;;;;;;;;;;22.67;65.71;99477.56;12212523;19;20344;-82
2022/08/26 06:48:07;;;;;;;;;;;;;;;22.69;69.71;99474.41;12233418;19;19910;-83
2022/08/26 06:52:10;;;;;;;;;;;;;;;22.56;73.04;99484.72;12233069;19;19907;-81
2022/08/26 06:56:12;;;;;;;;;;;;;;;22.47;75.48;99476.34;12209698;19;19910;-83
2022/08/26 07:00:14;;;;;;;;;;;;;;;22.46;77.18;99482.31;12224179;19;19967;-82
2022/08/26 07:04:20;;;;;;;;;;;;;;;22.43;77.96;99477.38;12228023;19;19910;-83
2022/08/26 07:08:23;;;;;;;;;;;;;;;22.44;78.60;99474.22;12207914;19;19915;-82
2022/08/26 07:12:25;;;;;;;;;;;;;;;22.52;79.02;99480.97;12228030;19;19910;-82
2022/08/26 07:16:27;;;;;;;;;;;;;;;22.63;79.11;99485.00;12231227;19;19906;-83
2022/08/26 07:20:30;;;;;;;;;;;;;;;22.67;79.74;99477.56;12204005;19;20011;-83
2022/08/26 07:24:34;;;;;;;;;;;;;;;22.86;79.63;99484.75;12226971;19;19922;-82
2022/08/26 07:28:35;;;;;;;;;;;;;;;23.07;79.37;99481.97;12228927;19;19923;-83
2022/08/26 07:32:37;;;;;;;;;;;;;;;23.22;77.44;99491.78;12203537;19;19931;-83
2022/08/26 07:36:38;;;;;;;;;;;;;;;23.43;76.10;99487.00;12226587;19;19919;-83
2022/08/26 07:40:40;;;;;;;;;;;;;;;23.68;74.92;99493.56;12204764;19;19924;-83
2022/08/26 07:44:42;;;;;;;;;;;;;;;23.99;74.16;99498.72;12226706;19;19918;-83
2022/08/26 07:48:45;;;;;;;;;;;;;;;24.13;72.99;99501.25;12224269;19;19911;-83
2022/08/26 07:52:47;;;;;;;;;;;;;;;24.14;72.06;99496.44;12201995;19;19917;-83
2022/08/26 07:56:49;;;;;;;;;;;;;;;24.16;71.71;99497.72;12225639;19;19919;-83
2022/08/26 08:00:52;;;;;;;;;;;;;;;24.17;72.32;99505.00;12226814;19;19970;-83
2022/08/26 08:04:53;;;;;;;;;;;;;;;24.10;72.73;99494.31;12204045;19;19942;-83
2022/08/26 08:08:56;;;;;;;;;;;;;;;24.21;72.70;99493.84;12226827;19;19903;-83
2022/08/26 08:12:57;;;;;;;;;;;;;;;24.32;72.42;99495.88;12223861;19;19915;-83
2022/08/26 08:16:59;;;;;;;;;;;;;;;24.42;71.32;99493.78;12203558;19;19925;-83
2022/08/26 08:21:02;;;;;;;;;;;;;;;24.51;71.21;99498.16;12225486;19;20289;-83
2022/08/26 08:25:33;;;;;;;;;;;;;;;24.61;71.52;99493.25;12224735;19;19911;-83
2022/08/26 08:29:40;;;;;;;;;;;;;;;24.64;71.82;99503.81;12206263;19;19927;-83
2022/08/26 08:33:42;;;;;;;;;;;;;;;24.60;72.28;99497.22;12225642;19;19923;-82
2022/08/26 08:37:43;;;;;;;;;;;;;;;24.52;72.61;99502.63;12206717;19;19903;-82
2022/08/26 08:42:05;;;;;;;;;;;;;;;24.51;74.23;99497.31;12229639;19;19907;-82
2022/08/26 08:46:09;;;;;;;;;;;;;;;24.52;74.85;99505.44;12227282;19;19926;-82
2022/08/26 08:50:23;;;;;;;;;;;;;;;24.48;75.60;99509.28;12205045;19;20272;-82
2022/08/26 08:54:27;;;;;;;;;;;;;;;24.42;75.96;99508.72;12223946;19;19919;-82
2022/08/26 08:58:48;;;;;;;;;;;;;;;24.31;75.86;99510.31;12227412;19;19903;-82
2022/08/26 09:02:58;;;;;;;;;;;;;;;24.14;76.80;99518.94;12205263;19;19918;-82
2022/08/26 09:07:01;;;;;;;;;;;;;;;24.11;75.91;99515.66;12223904;19;19932;-82
2022/08/26 09:11:03;;;;;;;;;;;;;;;24.07;74.06;99522.34;12203986;19;19914;-82
2022/08/26 09:15:07;;;;;;;;;;;;;;;24.04;74.61;99517.41;12224368;19;19914;-82
2022/08/26 09:19:13;;;;;;;;;;;;;;;23.89;75.52;99524.50;12228127;19;20340;-82
2022/08/26 09:23:19;;;;;;;;;;;;;;;23.67;76.58;99520.03;12208771;19;19914;-82
2022/08/26 09:27:34;;;;;;;;;;;;;;;23.66;76.25;99507.97;12238162;19;20241;-82
2022/08/26 09:31:38;;;;;;;;;;;;;;;23.69;76.17;99516.88;12230568;19;19947;-82
2022/08/26 09:35:41;;;;;;;;;;;;;;;23.55;76.87;99514.34;12235985;19;19914;-82
2022/08/26 09:39:43;;;;;;;;;;;;;;;23.58;75.81;99513.66;12235880;19;20376;-81
2022/08/26 09:44:04;;;;;;;;;;;;;;;23.69;74.99;99511.25;12213229;19;19911;-81
2022/08/26 09:48:07;;;;;;;;;;;;;;;23.80;75.23;99507.72;12231524;19;19914;-82
2022/08/26 09:52:12;;;;;;;;;;;;;;;23.82;73.80;99516.59;12234262;19;19911;-81
2022/08/26 09:56:15;;;;;;;;;;;;;;;23.88;73.26;99508.78;12211198;19;19911;-81
2022/08/26 10:00:25;;;;;;;;;;;;;;;23.92;73.13;99509.75;12231343;19;19915;-81
2022/08/26 10:04:29;;;;;;;;;;;;;;;23.93;73.13;99493.69;12232317;19;19914;-83
2022/08/26 10:08:33;;;;;;;;;;;;;;;23.77;77.70;99479.44;12215151;19;19914;-82
2022/08/26 10:12:37;;;;;;;;;;;;;;;23.32;82.09;99469.72;12234795;19;19914;-79
2022/08/26 10:16:47;;;;;;;;;;;;;;;23.12;88.49;99454.50;12218247;19;19935;-79
2022/08/26 10:20:54;;;;;;;;;;;;;;;23.05;88.89;99442.97;12233876;19;19911;-79
2022/08/26 10:24:57;;;;;;;;;;;;;;;23.11;91.63;99447.25;12231576;19;19911;-79
2022/08/26 10:29:05;;;;;;;;;;;;;;;23.24;92.63;99461.38;12211249;19;19923;-79
2022/08/26 10:33:09;;;;;;;;;;;;;;;23.23;94.70;99443.69;12225839;19;20638;-79
2022/08/26 10:37:19;;;;;;;;;;;;;;;23.36;95.06;99447.38;12231585;19;19910;-79
2022/08/26 10:41:24;;;;;;;;;;;;;;;23.45;95.16;99438.84;12209546;19;19989;-78
2022/08/26 10:45:27;;;;;;;;;;;;;;;23.43;97.64;99437.19;12230844;19;19911;-79
2022/08/26 10:49:29;;;;;;;;;;;;;;;23.52;96.50;99439.94;12232476;19;19911;-78
2022/08/26 10:53:38;;;;;;;;;;;;;;;23.46;97.01;99432.88;12206849;19;19939;-81
2022/08/26 10:57:56;;;;;;;;;;;;;;;23.51;97.99;99427.03;12231065;19;19918;-79
2022/08/26 11:02:16;;;;;;;;;;;;;;;23.55;98.66;99415.91;12206980;19;19937;-79
2022/08/26 11:06:26;;;;;;;;;;;;;;;23.62;99.90;99405.75;12229148;19;19930;-79
2022/08/26 11:10:37;;;;;;;;;;;;;;;23.66;99.10;99395.44;12230090;19;19922;-80
2022/08/26 11:14:38;;;;;;;;;;;;;;;23.78;98.73;99410.75;12208362;19;19925;-79
2022/08/26 11:18:54;;;;;;;;;;;;;;;23.94;100.00;99422.97;12231714;19;19918;-78
2022/08/26 11:23:16;;;;;;;;;;;;;;;24.22;100.00;99425.94;12207269;19;19911;-78
2022/08/26 11:27:24;;;;;;;;;;;;;;;24.62;99.97;99435.72;12229769;19;19911;-79
2022/08/26 11:31:26;;;;;;;;;;;;;;;24.99;100.00;99413.97;12230914;19;20272;-81
2022/08/26 11:35:34;;;;;;;;;;;;;;;25.36;99.27;99416.69;12208984;19;19978;-81
2022/08/26 11:39:49;;;;;;;;;;;;;;;25.76;97.96;99410.97;12233506;19;19947;-81
2022/08/26 11:43:56;;;;;;;;;;;;;;;26.25;96.69;99407.00;12216533;19;19914;-81
2022/08/26 11:47:57;;;;;;;;;;;;;;;26.82;93.54;99406.41;12275377;19;19935;-79
2022/08/26 11:52:08;;;;;;;;;;;;;;;27.28;90.68;99405.81;12275023;19;19907;-82
2022/08/26 11:56:27;;;;;;;;;;;;;;;27.84;86.16;99407.34;12215877;19;20015;-83
2022/08/26 12:00:38;;;;;;;;;;;;;;;28.15;82.81;99401.44;12236286;19;19918;-82
2022/08/26 12:04:48;;;;;;;;;;;;;;;28.37;82.73;99411.13;12213852;19;19922;-81
2022/08/26 12:08:50;;;;;;;;;;;;;;;28.42;79.11;99401.53;12236628;19;19914;-81
2022/08/26 12:12:53;;;;;;;;;;;;;;;28.56;78.07;99396.09;12237206;19;20561;-81
2022/08/26 12:17:07;;;;;;;;;;;;;;;28.68;77.63;99394.25;12217937;19;20281;-81
2022/08/26 12:21:12;;;;;;;;;;;;;;;28.68;75.38;99391.41;12243121;19;19907;-81
2022/08/26 12:25:20;;;;;;;;;;;;;;;28.84;73.52;99383.53;12243691;19;19907;-81
2022/08/26 12:29:24;;;;;;;;;;;;;;;29.20;69.35;99378.34;12225575;19;19918;-81
2022/08/26 12:33:28;;;;;;;;;;;;;;;29.70;69.87;99373.31;12246625;19;20010;-81
2022/08/26 12:37:33;;;;;;;;;;;;;;;30.23;67.31;99358.81;12248162;19;19906;-81
2022/08/26 12:41:37;;;;;;;;;;;;;;;30.82;65.69;99361.69;12222597;19;19918;-82
2022/08/26 12:45:41;;;;;;;;;;;;;;;31.28;62.27;99353.34;12235418;19;19931;-82
2022/08/26 12:49:43;;;;;;;;;;;;;;;32.57;58.95;99350.75;12208791;19;19919;-82
2022/08/26 12:53:45;;;;;;;;;;;;;;;32.80;58.34;99352.31;12220383;19;19924;-83
2022/08/26 12:58:08;;;;;;;;;;;;;;;33.01;57.31;99340.03;12226087;19;19927;-83
2022/08/26 13:02:31;;;;;;;;;;;;;;;33.62;54.09;99334.88;12208738;19;20262;-83
2022/08/26 13:06:33;;;;;;;;;;;;;;;34.76;48.72;99326.56;12231883;19;19920;-83
2022/08/26 13:10:36;;;;;;;;;;;;;;;36.07;45.98;99322.38;12240097;19;20023;-83
2022/08/26 13:14:39;;;;;;;;;;;;;;;37.35;42.66;99311.31;12217283;19;20256;-83
2022/08/26 13:18:41;;;;;;;;;;;;;;;37.21;38.43;99310.81;12236842;19;19915;-83
2022/08/26 13:22:47;;;;;;;;;;;;;;;36.65;38.62;99302.94;12214025;19;19910;-83
2022/08/26 13:27:00;;;;;;;;;;;;;;;37.44;39.65;99284.03;12237105;19;19932;-83
2022/08/26 13:31:03;;;;;;;;;;;;;;;38.80;38.15;99284.28;12239476;19;19919;-84
2022/08/26 13:35:06;;;;;;;;;;;;;;;37.95;36.91;99279.56;12217034;19;19914;-82
2022/08/26 13:39:07;;;;;;;;;;;;;;;36.81;37.71;99279.22;12237442;19;19911;-83
2022/08/26 13:43:10;;;;;;;;;;;;;;;36.40;38.23;99277.53;12237905;19;19911;-83
2022/08/26 13:47:11;;;;;;;;;;;;;;;37.29;36.90;99257.69;12214508;19;19911;-84
2022/08/26 13:51:13;;;;;;;;;;;;;;;37.85;34.88;99252.66;12236512;19;19915;-83
2022/08/26 13:55:15;;;;;;;;;;;;;;;38.57;32.02;99244.25;12238653;19;19913;-83
2022/08/26 13:59:16;;;;;;;;;;;;;;;37.97;32.63;99248.28;12216483;19;19911;-82
2022/08/26 14:03:18;;;;;;;;;;;;;;;37.15;32.39;99245.28;12235606;19;19910;-83
2022/08/26 14:07:19;;;;;;;;;;;;;;;36.59;32.87;99247.25;12233366;19;19915;-83
2022/08/26 14:11:23;;;;;;;;;;;;;;;36.59;32.96;99247.25;12213658;19;19910;-82
2022/08/26 14:15:25;;;;;;;;;;;;;;;36.38;31.65;99257.06;12243773;19;20335;-83
2022/08/26 14:19:30;;;;;;;;;;;;;;;35.69;33.37;99262.34;12237233;19;19934;-83
2022/08/26 14:23:31;;;;;;;;;;;;;;;34.74;34.25;99264.03;12210979;19;20328;-84
2022/08/26 14:27:33;;;;;;;;;;;;;;;33.68;35.28;99273.19;12235419;19;19910;-82
2022/08/26 14:31:35;;;;;;;;;;;;;;;33.54;35.56;99262.69;12233369;19;19915;-82
2022/08/26 14:35:36;;;;;;;;;;;;;;;33.62;35.70;99259.78;12212213;19;19929;-82
2022/08/26 14:39:38;;;;;;;;;;;;;;;33.19;36.80;99257.16;12235268;19;19907;-83
2022/08/26 14:43:42;;;;;;;;;;;;;;;32.58;37.42;99257.44;12213746;19;20255;-81
2022/08/26 14:47:44;;;;;;;;;;;;;;;32.43;38.17;99245.22;12232195;19;20394;-82
2022/08/26 14:51:46;;;;;;;;;;;;;;;32.55;38.48;99230.53;12233703;19;20344;-83
2022/08/26 14:55:49;;;;;;;;;;;;;;;32.68;37.82;99230.88;12213522;19;19915;-83
2022/08/26 14:59:51;;;;;;;;;;;;;;;32.82;36.95;99227.97;12234918;19;19959;-81
2022/08/26 15:03:52;;;;;;;;;;;;;;;32.75;37.11;99232.91;12232043;19;19915;-80
2022/08/26 15:07:54;;;;;;;;;;;;;;;32.53;36.43;99229.31;12211656;19;19911;-81
2022/08/26 15:11:56;;;;;;;;;;;;;;;32.47;35.92;99250.94;12246108;19;19930;-82
2022/08/26 15:15:57;;;;;;;;;;;;;;;32.24;35.35;99263.56;12237370;19;19907;-84
2022/08/26 15:19:59;;;;;;;;;;;;;;;32.35;35.34;99267.22;12212110;19;19933;-83
2022/08/26 15:24:01;;;;;;;;;;;;;;;32.15;36.33;99277.44;12229995;19;19910;-83
2022/08/26 15:28:03;;;;;;;;;;;;;;;31.96;37.41;99292.91;12234640;19;19914;-82
2022/08/26 15:32:04;;;;;;;;;;;;;;;31.79;38.43;99300.19;12212557;19;19911;-83
2022/08/26 15:36:06;;;;;;;;;;;;;;;31.26;39.66;99283.81;12231654;19;19918;-82
2022/08/26 15:40:09;;;;;;;;;;;;;;;31.10;40.30;99298.41;12233666;19;19907;-83
2022/08/26 15:44:12;;;;;;;;;;;;;;;31.20;40.67;99296.81;12210498;19;19911;-82
2022/08/26 15:48:14;;;;;;;;;;;;;;;31.20;41.34;99294.75;12232572;19;20336;-84
2022/08/26 15:52:17;;;;;;;;;;;;;;;30.72;42.84;99289.25;12231563;19;20600;-83
2022/08/26 15:56:19;;;;;;;;;;;;;;;30.61;42.85;99288.41;12212176;19;19944;-83
2022/08/26 16:00:21;;;;;;;;;;;;;;;30.36;44.42;99294.75;12233605;19;19919;-83
2022/08/26 16:04:22;;;;;;;;;;;;;;;30.27;44.85;99297.13;12231622;19;19903;-83
2022/08/26 16:08:24;;;;;;;;;;;;;;;30.12;45.77;99292.53;12210443;19;19944;-84
2022/08/26 16:12:30;;;;;;;;;;;;;;;30.24;44.81;99305.63;12240789;19;19914;-83
2022/08/26 16:16:32;;;;;;;;;;;;;;;30.24;44.20;99308.47;12244242;19;19914;-82
2022/08/26 16:20:34;;;;;;;;;;;;;;;30.06;44.15;99319.66;12219799;19;19919;-83
2022/08/26 16:24:36;;;;;;;;;;;;;;;29.88;44.54;99330.88;12239770;19;19911;-83
2022/08/26 16:28:39;;;;;;;;;;;;;;;29.70;44.32;99327.88;12222928;19;20285;-81
2022/08/26 16:32:40;;;;;;;;;;;;;;;29.53;45.19;99330.09;12246251;19;19914;-82
2022/08/26 16:36:42;;;;;;;;;;;;;;;29.22;45.94;99336.25;12247748;19;20290;-82
2022/08/26 16:40:44;;;;;;;;;;;;;;;28.71;47.17;99351.75;12222691;19;19919;-79
2022/08/26 16:44:49;;;;;;;;;;;;;;;28.30;47.58;99354.34;12228390;19;19911;-80
2022/08/26 16:48:52;;;;;;;;;;;;;;;28.18;47.82;99352.53;12227546;19;20189;-81
2022/08/26 16:52:53;;;;;;;;;;;;;;;28.09;48.05;99360.47;12206708;19;19911;-80
2022/08/26 16:56:56;;;;;;;;;;;;;;;27.83;48.55;99360.41;12226658;19;19914;-80
2022/08/26 17:00:57;;;;;;;;;;;;;;;27.65;48.25;99355.22;12224236;19;19914;-80
2022/08/26 17:04:59;;;;;;;;;;;;;;;27.57;48.25;99361.09;12202501;19;19912;-80
2022/08/26 17:09:01;;;;;;;;;;;;;;;27.20;50.07;99364.44;12221814;19;19919;-80
2022/08/26 17:13:02;;;;;;;;;;;;;;;27.00;50.40;99372.06;12222501;19;19922;-80
2022/08/26 17:17:04;;;;;;;;;;;;;;;26.88;50.72;99370.19;12200519;19;19911;-80
2022/08/26 17:21:08;;;;;;;;;;;;;;;26.66;50.88;99368.09;12224421;19;19907;-81
2022/08/26 17:25:15;;;;;;;;;;;;;;;26.44;52.74;99361.88;12224633;19;20264;-81
2022/08/26 17:29:17;;;;;;;;;;;;;;;26.31;52.72;99364.00;12199130;19;19931;-80
2022/08/26 17:33:18;;;;;;;;;;;;;;;26.23;52.61;99367.84;12216615;19;19911;-81
2022/08/26 17:37:25;;;;;;;;;;;;;;;26.11;53.10;99370.75;12220423;19;20332;-80
2022/08/26 17:41:26;;;;;;;;;;;;;;;26.03;53.89;99360.50;12198005;19;20567;-80
2022/08/26 17:45:28;;;;;;;;;;;;;;;25.97;53.87;99364.75;12234162;19;19915;-80
2022/08/26 17:49:30;;;;;;;;;;;;;;;25.86;54.46;99379.41;12263908;19;19915;-82
2022/08/26 17:53:32;;;;;;;;;;;;;;;25.79;54.88;99376.38;12261943;19;19917;-82
2022/08/26 17:57:34;;;;;;;;;;;;;;;25.64;55.13;99379.97;12285792;19;19915;-82
2022/08/26 18:01:42;;;;;;;;;;;;;;;25.57;55.54;99385.44;12263208;19;19964;-81
2022/08/26 18:05:48;;;;;;;;;;;;;;;25.47;55.92;99383.97;12255659;19;19914;-81
2022/08/26 18:09:49;;;;;;;;;;;;;;;25.42;56.55;99393.50;12242146;19;19919;-81
2022/08/26 18:13:51;;;;;;;;;;;;;;;25.30;56.45;99396.38;12221503;19;19910;-81
2022/08/26 18:17:53;;;;;;;;;;;;;;;25.17;57.46;99404.06;12241805;19;19990;-82
2022/08/26 18:21:54;;;;;;;;;;;;;;;24.99;59.80;99397.03;12250227;19;19915;-82
2022/08/26 18:25:56;;;;;;;;;;;;;;;24.98;59.04;99403.84;12232371;19;20007;-82
2022/08/26 18:29:57;;;;;;;;;;;;;;;24.91;59.77;99398.00;12244025;19;19914;-82
2022/08/26 18:34:00;;;;;;;;;;;;;;;24.80;60.33;99397.66;12233659;19;19918;-82
2022/08/26 18:38:01;;;;;;;;;;;;;;;24.66;62.46;99402.84;12217424;19;20344;-83
2022/08/26 18:42:12;;;;;;;;;;;;;;;24.35;64.50;99401.44;12231565;19;19914;-82
2022/08/26 18:46:13;;;;;;;;;;;;;;;24.01;66.74;99405.53;12230442;19;19935;-83
2022/08/26 18:50:15;;;;;;;;;;;;;;;23.75;68.98;99414.25;12210283;19;19911;-80
2022/08/26 18:54:17;;;;;;;;;;;;;;;23.56;70.80;99418.41;12225369;19;19928;-82
2022/08/26 18:58:38;;;;;;;;;;;;;;;23.41;72.41;99419.88;12217062;19;19920;-81
2022/08/26 19:02:40;;;;;;;;;;;;;;;23.30;76.46;99431.88;12230636;19;19951;-83
2022/08/26 19:06:49;;;;;;;;;;;;;;;23.19;75.42;99432.28;12228847;19;19914;-82
2022/08/26 19:10:51;;;;;;;;;;;;;;;23.09;77.12;99431.88;12208190;19;19963;-82
2022/08/26 19:14:53;;;;;;;;;;;;;;;23.01;75.97;99436.41;12230975;19;20286;-82
2022/08/26 19:18:55;;;;;;;;;;;;;;;22.99;75.51;99438.72;12229059;19;19978;-82
2022/08/26 19:22:56;;;;;;;;;;;;;;;22.97;76.30;99449.50;12206631;19;19931;-83
2022/08/26 19:27:10;;;;;;;;;;;;;;;22.96;74.88;99461.88;12228262;19;19931;-83
2022/08/26 19:31:15;;;;;;;;;;;;;;;22.97;76.50;99467.19;12228580;19;19962;-83
2022/08/26 19:35:17;;;;;;;;;;;;;;;22.95;77.19;99477.09;12205876;19;19944;-83
2022/08/26 19:39:19;;;;;;;;;;;;;;;22.91;77.23;99476.13;12227386;19;19972;-83
2022/08/26 19:43:21;;;;;;;;;;;;;;;22.84;77.96;99471.00;12225646;19;19903;-83
2022/08/26 19:47:24;;;;;;;;;;;;;;;22.78;77.45;99472.38;12205532;19;19932;-83
2022/08/26 19:51:27;;;;;;;;;;;;;;;22.78;77.61;99477.19;12225913;19;19907;-83
2022/08/26 19:55:29;;;;;;;;;;;;;;;22.72;77.17;99474.56;12226504;19;20314;-83
2022/08/26 19:59:31;;;;;;;;;;;;;;;22.70;78.51;99465.66;12204899;19;19907;-83
2022/08/26 20:03:34;;;;;;;;;;;;;;;22.66;78.22;99475.09;12224499;19;19915;-83
2022/08/26 20:07:48;;;;;;;;;;;;;;;22.64;77.96;99472.66;12224837;19;19942;-83
2022/08/26 20:11:50;;;;;;;;;;;;;;;22.61;78.92;99478.94;12204683;19;19926;-83
2022/08/26 20:15:56;;;;;;;;;;;;;;;22.59;78.89;99477.63;12225844;19;19989;-83
2022/08/26 20:24:36;;;;;;;;;;;;;;;22.52;80.27;99483.78;12225524;19;19920;-83
2022/08/26 20:28:38;;;;;;;;;;;;;;;22.51;80.23;99484.91;12216077;19;19915;-83
2022/08/26 20:32:47;;;;;;;;;;;;;;;22.55;79.96;99485.91;12222352;19;19918;-83
2022/08/26 20:37:07;;;;;;;;;;;;;;;22.59;79.77;99486.03;12224258;19;20479;-83
2022/08/26 20:41:52;;;;;;;;;;;;;;;22.63;80.03;99493.44;12201222;19;19922;-83
2022/08/26 20:45:54;;;;;;;;;;;;;;;22.66;79.80;99501.19;12247480;19;19910;-82
2022/08/26 21:33:43;;;;;;;;;;;;;;;22.18;82.43;99495.94;12123906;19;2004225;-82
2022/08/26 21:38:15;;;;;;;;;;;;;;;22.13;82.98;99496.94;12209377;19;19914;-82
2022/08/26 21:42:57;;;;;;;;;;;;;;;;;;;;;
2022/08/26 21:47:49;;;;;;;;;;;;;;;22.05;82.63;99507.00;12206758;19;19921;-82
2022/08/26 21:52:29;;;;;;;;;;;;;;;22.03;82.73;99508.50;12229986;19;19982;-82
2022/08/26 21:57:03;;;;;;;;;;;;;;;21.99;83.18;99515.94;12209338;19;19915;-82